Terminal Aerodrome Forecast
Issued by NWS Pocatello, ID

Home | Current Version | Previous Version | Text Only | Print | Product List | Glossary On
Versions: 1 2 3 4 5 6 7 8 9 10 11 12 13
155
FTUS45 KPIH 251122
TAFIDA
TAF
KIDA 251122Z 2512/2612 VRB05KT P6SM SKC
     FM251900 21008KT P6SM FEW100
     FM260300 20006KT P6SM SKC=

USA.gov is the U.S. government's official web portal to all federal, state and local government web resources and services.